Time;durP1;ratioP1;P1;durP2;ratioP2;P2;SDS_P1;SDS_P2;PMS_P1;PMS_P2;Temp;Humidity;BMP_temperature;BMP_pressure;BME280_temperature;BME280_humidity;BME280_pressure;Samples;Min_cycle;Max_cycle;Signal;HPM_P1;HPM_P2
2022/03/16 00:00:08;;;;;;;10.73;5.60;;;;;;;;;;5028686;28;20109;-59
2022/03/16 00:02:34;;;;;;;12.02;5.60;;;;;;;;;;5028467;28;20030;-60
2022/03/16 00:05:00;;;;;;;10.23;5.13;;;;;;;;;;5028679;28;20030;-60
2022/03/16 00:07:26;;;;;;;10.68;5.22;;;;;;;;;;5028834;28;20585;-60
2022/03/16 00:09:52;;;;;;;9.70;5.60;;;;;;;;;;5029440;28;20105;-59
2022/03/16 00:12:18;;;;;;;11.00;5.38;;;;;;;;;;5029565;28;20025;-59
2022/03/16 00:14:45;;;;;;;11.15;5.50;;;;;;;;;;5029067;28;20109;-60
2022/03/16 00:17:11;;;;;;;9.10;5.47;;;;;;;;;;5029307;28;20392;-60
2022/03/16 00:19:39;;;;;;;9.07;4.85;;;;;;;;;;5028569;28;20029;-60
2022/03/16 00:22:06;;;;;;;8.90;5.60;;;;;;;;;;5029362;28;20041;-57
2022/03/16 00:24:32;;;;;;;11.13;5.80;;;;;;;;;;5029089;28;20032;-58
2022/03/16 00:26:58;;;;;;;10.40;5.13;;;;;;;;;;5028953;28;20112;-59
2022/03/16 00:29:24;;;;;;;9.68;5.25;;;;;;;;;;5028751;28;20104;-60
2022/03/16 00:31:50;;;;;;;7.68;4.60;;;;;;;;;;5029753;28;20060;-60
2022/03/16 00:34:16;;;;;;;11.18;5.97;;;;;;;;;;5028465;28;20064;-59
2022/03/16 00:36:42;;;;;;;12.48;5.68;;;;;;;;;;5028368;28;20045;-59
2022/03/16 00:39:08;;;;;;;9.57;5.55;;;;;;;;;;5029140;28;20017;-60
2022/03/16 00:41:37;;;;;;;8.43;5.10;;;;;;;;;;5028745;28;20392;-60
2022/03/16 00:44:04;;;;;;;9.18;5.90;;;;;;;;;;5028589;28;20535;-58
2022/03/16 00:46:30;;;;;;;10.55;5.55;;;;;;;;;;5029027;28;20159;-59
2022/03/16 00:48:56;;;;;;;9.93;5.18;;;;;;;;;;5028886;28;20104;-59
2022/03/16 00:51:22;;;;;;;11.27;5.25;;;;;;;;;;5028344;28;20061;-60
2022/03/16 00:53:48;;;;;;;8.85;5.38;;;;;;;;;;5009839;28;20128;-59
2022/03/16 00:56:14;;;;;;;12.18;5.45;;;;;;;;;;5028772;28;20481;-59
2022/03/16 00:58:40;;;;;;;9.50;5.63;;;;;;;;;;5028587;28;20029;-60
2022/03/16 01:01:07;;;;;;;9.73;5.28;;;;;;;;;;5028444;28;20438;-60
2022/03/16 01:03:33;;;;;;;11.45;6.18;;;;;;;;;;5029072;28;20419;-60
2022/03/16 01:05:59;;;;;;;10.15;5.57;;;;;;;;;;5028922;28;20030;-60
2022/03/16 01:08:25;;;;;;;11.68;5.57;;;;;;;;;;5028416;28;20464;-61
2022/03/16 01:10:52;;;;;;;10.38;5.63;;;;;;;;;;5028711;28;20733;-60
2022/03/16 01:13:18;;;;;;;10.52;5.45;;;;;;;;;;5031499;28;20104;-61
2022/03/16 01:15:44;;;;;;;11.13;5.85;;;;;;;;;;5031479;28;20026;-60
2022/03/16 01:18:10;;;;;;;9.18;5.55;;;;;;;;;;5031632;28;20468;-59
2022/03/16 01:20:36;;;;;;;10.48;5.55;;;;;;;;;;5030113;28;20044;-57
2022/03/16 01:23:02;;;;;;;11.35;5.80;;;;;;;;;;5031942;28;20458;-59
2022/03/16 01:25:28;;;;;;;8.43;5.38;;;;;;;;;;5031479;28;20068;-59
2022/03/16 01:27:54;;;;;;;10.23;5.28;;;;;;;;;;5031437;28;20032;-59
2022/03/16 01:30:20;;;;;;;9.23;5.88;;;;;;;;;;5032567;28;20108;-59
2022/03/16 01:32:46;;;;;;;8.55;5.78;;;;;;;;;;5032565;28;20133;-60
2022/03/16 01:35:12;;;;;;;9.52;6.00;;;;;;;;;;5031827;28;20547;-59
2022/03/16 01:37:39;;;;;;;9.88;5.80;;;;;;;;;;5032340;28;20076;-61
2022/03/16 01:40:06;;;;;;;10.20;5.78;;;;;;;;;;5032597;28;20018;-59
2022/03/16 01:42:32;;;;;;;10.25;5.95;;;;;;;;;;5031268;28;20026;-59
2022/03/16 01:44:58;;;;;;;10.07;5.93;;;;;;;;;;5032235;28;20037;-59
2022/03/16 01:47:25;;;;;;;8.85;5.57;;;;;;;;;;5029466;28;20041;-59
2022/03/16 01:49:53;;;;;;;9.60;5.47;;;;;;;;;;5032265;28;20037;-60
2022/03/16 01:52:20;;;;;;;9.30;6.30;;;;;;;;;;5031820;28;20312;-58
2022/03/16 01:54:46;;;;;;;12.20;5.25;;;;;;;;;;5032072;28;20036;-60
2022/03/16 01:57:12;;;;;;;8.98;5.32;;;;;;;;;;5031459;28;20136;-58
2022/03/16 01:59:39;;;;;;;9.07;5.65;;;;;;;;;;5027303;28;20030;-59
2022/03/16 02:02:05;;;;;;;8.07;5.38;;;;;;;;;;5032089;28;20076;-60
2022/03/16 02:04:32;;;;;;;8.68;5.85;;;;;;;;;;5032071;28;20108;-60
2022/03/16 02:06:58;;;;;;;8.30;5.30;;;;;;;;;;5031713;28;20387;-60
2022/03/16 02:09:25;;;;;;;10.18;5.88;;;;;;;;;;5031550;28;20104;-60
2022/03/16 02:11:51;;;;;;;9.45;5.43;;;;;;;;;;5031288;28;20499;-60
2022/03/16 02:14:19;;;;;;;9.23;5.85;;;;;;;;;;5031447;28;20104;-59
2022/03/16 02:16:46;;;;;;;9.88;5.68;;;;;;;;;;5031656;28;20045;-60
2022/03/16 02:19:14;;;;;;;13.02;6.20;;;;;;;;;;5030966;28;20053;-58
2022/03/16 02:21:40;;;;;;;8.80;5.47;;;;;;;;;;5031339;28;20036;-58
2022/03/16 02:24:07;;;;;;;8.27;5.60;;;;;;;;;;5030970;28;20398;-59
2022/03/16 02:26:33;;;;;;;7.90;5.05;;;;;;;;;;5031282;28;20121;-60
2022/03/16 02:28:59;;;;;;;10.10;5.30;;;;;;;;;;5029422;28;20554;-60
2022/03/16 02:31:26;;;;;;;9.80;5.70;;;;;;;;;;5031053;28;20444;-58
2022/03/16 02:33:52;;;;;;;9.85;5.97;;;;;;;;;;5030999;28;20392;-62
2022/03/16 02:36:19;;;;;;;9.75;6.22;;;;;;;;;;5030463;28;20511;-59
2022/03/16 02:38:46;;;;;;;9.65;5.85;;;;;;;;;;5031285;28;20030;-60
2022/03/16 02:41:13;;;;;;;7.82;5.13;;;;;;;;;;5030192;28;20108;-60
2022/03/16 02:43:39;;;;;;;10.75;6.00;;;;;;;;;;5029631;28;20215;-60
2022/03/16 02:46:05;;;;;;;9.02;5.47;;;;;;;;;;5029931;28;20087;-60
2022/03/16 02:48:32;;;;;;;8.52;5.53;;;;;;;;;;5029941;28;20113;-60
2022/03/16 02:50:58;;;;;;;8.32;5.55;;;;;;;;;;5029734;28;20064;-59
2022/03/16 02:53:24;;;;;;;7.43;4.80;;;;;;;;;;5029884;28;20104;-60
2022/03/16 02:55:51;;;;;;;9.43;5.68;;;;;;;;;;5029663;28;20041;-59
2022/03/16 02:58:18;;;;;;;10.07;5.90;;;;;;;;;;5029996;28;20475;-59
2022/03/16 03:00:44;;;;;;;8.23;5.82;;;;;;;;;;5029678;28;20053;-60
2022/03/16 03:03:10;;;;;;;9.00;5.68;;;;;;;;;;5029829;28;20140;-60
2022/03/16 03:05:36;;;;;;;8.90;5.60;;;;;;;;;;5023930;28;20463;-59
2022/03/16 03:08:02;;;;;;;10.13;5.38;;;;;;;;;;5030648;28;20834;-60
2022/03/16 03:10:28;;;;;;;9.32;6.03;;;;;;;;;;5030124;28;20029;-61
2022/03/16 03:12:54;;;;;;;8.60;5.90;;;;;;;;;;5030619;28;20539;-60
2022/03/16 03:15:20;;;;;;;9.32;5.45;;;;;;;;;;5030171;28;20033;-59
2022/03/16 03:17:46;;;;;;;8.32;5.75;;;;;;;;;;5030325;28;20112;-60
2022/03/16 03:20:13;;;;;;;8.65;5.70;;;;;;;;;;5030434;28;20112;-59
2022/03/16 03:22:42;;;;;;;10.10;5.88;;;;;;;;;;5015937;28;20030;-59
2022/03/16 03:25:12;;;;;;;9.10;5.85;;;;;;;;;;5021953;28;20124;-60
2022/03/16 03:27:38;;;;;;;9.90;5.55;;;;;;;;;;5030075;28;20091;-58
2022/03/16 03:30:04;;;;;;;9.15;6.47;;;;;;;;;;5029246;28;20033;-58
2022/03/16 03:32:30;;;;;;;8.70;5.60;;;;;;;;;;5029897;28;20049;-57
2022/03/16 03:34:56;;;;;;;8.38;5.85;;;;;;;;;;5029784;28;20021;-61
2022/03/16 03:37:25;;;;;;;7.50;5.30;;;;;;;;;;5029626;28;20882;-58
2022/03/16 03:39:52;;;;;;;8.63;5.50;;;;;;;;;;5029858;28;20484;-59
2022/03/16 03:42:18;;;;;;;11.05;6.47;;;;;;;;;;5030300;28;20037;-62
2022/03/16 03:44:44;;;;;;;11.65;6.07;;;;;;;;;;5019963;28;20034;-60
2022/03/16 03:47:10;;;;;;;9.57;6.15;;;;;;;;;;5027226;28;20036;-63
2022/03/16 03:49:40;;;;;;;8.18;5.30;;;;;;;;;;5029609;28;20029;-61
2022/03/16 03:52:07;;;;;;;8.77;5.57;;;;;;;;;;5028937;28;20052;-62
2022/03/16 03:54:33;;;;;;;8.60;5.60;;;;;;;;;;5029612;28;20034;-61
2022/03/16 03:56:59;;;;;;;8.82;5.78;;;;;;;;;;5029056;28;20087;-60
2022/03/16 03:59:25;;;;;;;8.10;5.53;;;;;;;;;;5028550;28;20104;-60
2022/03/16 04:01:52;;;;;;;9.88;5.85;;;;;;;;;;5028935;28;20029;-60
2022/03/16 04:04:18;;;;;;;7.60;5.50;;;;;;;;;;5029469;28;20022;-59
2022/03/16 04:06:44;;;;;;;9.07;6.10;;;;;;;;;;5029128;28;20063;-59
2022/03/16 04:09:10;;;;;;;9.45;5.40;;;;;;;;;;5028777;28;20060;-59
2022/03/16 04:11:37;;;;;;;7.80;5.55;;;;;;;;;;5029295;28;20064;-59
2022/03/16 04:14:03;;;;;;;8.38;5.47;;;;;;;;;;5028959;28;20040;-60
2022/03/16 04:16:29;;;;;;;9.88;5.75;;;;;;;;;;5029081;28;20532;-60
2022/03/16 04:18:55;;;;;;;8.27;5.20;;;;;;;;;;5029322;28;20491;-60
2022/03/16 04:21:21;;;;;;;9.68;5.65;;;;;;;;;;5029258;28;20516;-60
2022/03/16 04:23:49;;;;;;;9.70;5.82;;;;;;;;;;5016152;28;20117;-58
2022/03/16 04:26:15;;;;;;;7.38;4.75;;;;;;;;;;5013195;28;20095;-60
2022/03/16 04:28:41;;;;;;;8.95;5.68;;;;;;;;;;5029078;28;20480;-60
2022/03/16 04:31:07;;;;;;;8.05;5.57;;;;;;;;;;5028147;28;20026;-59
2022/03/16 04:33:34;;;;;;;8.02;5.35;;;;;;;;;;5028658;28;20038;-59
2022/03/16 04:36:00;;;;;;;10.90;5.40;;;;;;;;;;5028269;28;20030;-59
2022/03/16 04:38:26;;;;;;;8.75;5.82;;;;;;;;;;5028650;28;20112;-60
2022/03/16 04:40:52;;;;;;;8.80;5.90;;;;;;;;;;5028614;28;20026;-60
2022/03/16 04:43:18;;;;;;;9.68;5.97;;;;;;;;;;5028131;28;20044;-60
2022/03/16 04:45:44;;;;;;;11.45;5.50;;;;;;;;;;5029100;28;20033;-59
2022/03/16 04:48:11;;;;;;;8.75;5.55;;;;;;;;;;5032649;28;20030;-59
2022/03/16 04:50:41;;;;;;;11.40;6.07;;;;;;;;;;5033240;28;20037;-60
2022/03/16 04:53:07;;;;;;;8.60;5.57;;;;;;;;;;5032669;28;20466;-59
2022/03/16 04:55:35;;;;;;;9.45;5.70;;;;;;;;;;5031529;28;20737;-59
2022/03/16 04:58:02;;;;;;;8.93;4.82;;;;;;;;;;5023256;28;20017;-58
2022/03/16 05:00:28;;;;;;;10.25;5.50;;;;;;;;;;5031882;28;20108;-59
2022/03/16 05:02:54;;;;;;;7.68;4.97;;;;;;;;;;5029605;28;20152;-60
2022/03/16 05:05:20;;;;;;;8.55;5.00;;;;;;;;;;5031452;28;20479;-60
2022/03/16 05:07:46;;;;;;;16.00;8.43;;;;;;;;;;5031814;28;20434;-61
2022/03/16 05:10:13;;;;;;;24.33;17.02;;;;;;;;;;5031737;28;20820;-61
2022/03/16 05:12:42;;;;;;;20.98;17.45;;;;;;;;;;5014299;28;20085;-61
2022/03/16 05:15:16;;;;;;;21.73;18.02;;;;;;;;;;5031415;28;20022;-61
2022/03/16 05:17:42;;;;;;;22.88;17.77;;;;;;;;;;5031624;28;20033;-60
2022/03/16 05:20:08;;;;;;;22.77;17.90;;;;;;;;;;5031411;28;20037;-61
2022/03/16 05:22:42;;;;;;;23.92;18.30;;;;;;;;;;5031688;28;20025;-61
2022/03/16 05:25:08;;;;;;;23.60;17.42;;;;;;;;;;5024331;28;20396;-61
2022/03/16 05:27:34;;;;;;;22.10;17.55;;;;;;;;;;5012324;28;20117;-61
2022/03/16 05:30:01;;;;;;;19.90;16.60;;;;;;;;;;5031220;28;20155;-60
2022/03/16 05:32:31;;;;;;;25.13;18.35;;;;;;;;;;5031523;28;20539;-61
2022/03/16 05:34:57;;;;;;;23.53;19.17;;;;;;;;;;5031061;28;20193;-59
2022/03/16 05:37:23;;;;;;;25.38;18.23;;;;;;;;;;5030891;28;20478;-60
2022/03/16 05:39:49;;;;;;;23.00;18.95;;;;;;;;;;5030787;28;20080;-60
2022/03/16 05:42:15;;;;;;;24.27;18.02;;;;;;;;;;5031094;28;20055;-60
2022/03/16 05:44:41;;;;;;;24.88;18.10;;;;;;;;;;5022223;28;20033;-60
2022/03/16 05:47:07;;;;;;;24.23;18.35;;;;;;;;;;5030392;28;20129;-60
2022/03/16 05:49:33;;;;;;;24.70;19.45;;;;;;;;;;5030621;28;20559;-60
2022/03/16 05:51:59;;;;;;;22.30;18.75;;;;;;;;;;5030770;28;20050;-59
2022/03/16 05:54:25;;;;;;;24.38;19.08;;;;;;;;;;5029824;28;20472;-60
2022/03/16 05:56:51;;;;;;;24.75;18.33;;;;;;;;;;5030593;28;20041;-60
2022/03/16 05:59:17;;;;;;;25.40;17.80;;;;;;;;;;5030693;28;20480;-61
2022/03/16 06:01:43;;;;;;;23.00;16.60;;;;;;;;;;5030455;28;20112;-60
2022/03/16 06:04:09;;;;;;;24.17;14.95;;;;;;;;;;5030016;28;20030;-59
2022/03/16 06:06:35;;;;;;;24.45;14.27;;;;;;;;;;5030368;28;20040;-61
2022/03/16 06:09:01;;;;;;;24.00;13.07;;;;;;;;;;5030147;28;20029;-61
2022/03/16 06:11:29;;;;;;;24.50;13.82;;;;;;;;;;5030521;28;20029;-61
2022/03/16 06:13:55;;;;;;;24.45;13.10;;;;;;;;;;5029945;28;20561;-60
2022/03/16 06:16:21;;;;;;;16.58;12.85;;;;;;;;;;5029634;28;20484;-61
2022/03/16 06:18:47;;;;;;;17.13;12.13;;;;;;;;;;5030633;28;20488;-55
2022/03/16 06:21:13;;;;;;;18.80;12.77;;;;;;;;;;5029797;28;20032;-60
2022/03/16 06:23:40;;;;;;;19.45;12.68;;;;;;;;;;5029788;28;20030;-60
2022/03/16 06:26:06;;;;;;;15.48;10.80;;;;;;;;;;5029709;28;20033;-60
2022/03/16 06:28:32;;;;;;;19.60;12.25;;;;;;;;;;5030012;28;20055;-61
2022/03/16 06:30:58;;;;;;;18.88;12.00;;;;;;;;;;5029140;28;20022;-61
2022/03/16 06:33:25;;;;;;;14.20;10.50;;;;;;;;;;5030240;28;20033;-61
2022/03/16 06:35:51;;;;;;;18.02;11.07;;;;;;;;;;5029809;28;20029;-61
2022/03/16 06:38:17;;;;;;;15.90;10.15;;;;;;;;;;5029506;28;20429;-61
2022/03/16 06:40:43;;;;;;;16.38;10.70;;;;;;;;;;5029721;28;20096;-61
2022/03/16 06:43:09;;;;;;;17.20;11.05;;;;;;;;;;5029810;28;20033;-61
2022/03/16 06:45:35;;;;;;;17.40;10.05;;;;;;;;;;5027831;28;20172;-62
2022/03/16 06:48:02;;;;;;;17.35;9.95;;;;;;;;;;5029332;28;20025;-61
2022/03/16 06:50:29;;;;;;;18.08;10.45;;;;;;;;;;5029403;28;20072;-60
2022/03/16 06:52:56;;;;;;;18.35;9.35;;;;;;;;;;5029498;28;20058;-61
2022/03/16 06:55:22;;;;;;;17.02;9.52;;;;;;;;;;5029859;28;20026;-61
2022/03/16 06:57:48;;;;;;;12.32;9.15;;;;;;;;;;5029749;28;20112;-60
2022/03/16 07:00:15;;;;;;;13.35;8.75;;;;;;;;;;5030104;28;20184;-61
2022/03/16 07:02:54;;;;;;;13.93;8.95;;;;;;;;;;5028978;28;20029;-60
2022/03/16 07:05:21;;;;;;;10.48;7.80;;;;;;;;;;5018033;28;20033;-61
2022/03/16 07:07:48;;;;;;;12.70;8.40;;;;;;;;;;5023139;28;20041;-61
2022/03/16 07:10:14;;;;;;;13.02;8.45;;;;;;;;;;5028119;28;20108;-61
2022/03/16 07:12:40;;;;;;;13.57;8.40;;;;;;;;;;5028625;28;20029;-61
2022/03/16 07:15:06;;;;;;;13.38;7.82;;;;;;;;;;5029218;28;20103;-61
2022/03/16 07:17:32;;;;;;;14.23;7.47;;;;;;;;;;5029150;28;20034;-61
2022/03/16 07:19:58;;;;;;;12.05;8.38;;;;;;;;;;5029485;28;20060;-61
2022/03/16 07:22:25;;;;;;;12.30;7.63;;;;;;;;;;5028878;28;20129;-60
2022/03/16 07:24:51;;;;;;;13.43;7.65;;;;;;;;;;5028741;28;20028;-60
2022/03/16 07:27:17;;;;;;;12.32;8.07;;;;;;;;;;5028311;28;20025;-61
2022/03/16 07:29:43;;;;;;;14.65;8.00;;;;;;;;;;5029186;28;20787;-61
2022/03/16 07:32:09;;;;;;;13.90;7.95;;;;;;;;;;5028318;28;20547;-60
2022/03/16 07:34:35;;;;;;;14.77;8.25;;;;;;;;;;5027471;28;20053;-61
2022/03/16 07:37:01;;;;;;;15.48;8.07;;;;;;;;;;5027538;28;20888;-60
2022/03/16 07:39:27;;;;;;;18.00;8.40;;;;;;;;;;5027536;28;20833;-62
2022/03/16 07:41:53;;;;;;;23.85;8.65;;;;;;;;;;5025317;28;20140;-61
2022/03/16 07:44:19;;;;;;;18.20;7.18;;;;;;;;;;5028057;28;20440;-60
2022/03/16 07:46:45;;;;;;;15.45;7.30;;;;;;;;;;5023846;28;20547;-61
2022/03/16 07:49:11;;;;;;;24.92;8.57;;;;;;;;;;5026204;28;20160;-61
2022/03/16 07:51:37;;;;;;;14.45;7.45;;;;;;;;;;5027632;28;20566;-61
2022/03/16 07:54:03;;;;;;;21.27;8.50;;;;;;;;;;5027640;28;20388;-62
2022/03/16 07:56:29;;;;;;;18.73;7.35;;;;;;;;;;5027245;28;20037;-61
2022/03/16 07:58:58;;;;;;;27.80;9.00;;;;;;;;;;5022166;28;20046;-61
2022/03/16 08:01:24;;;;;;;17.50;6.68;;;;;;;;;;5020894;28;20040;-61
2022/03/16 08:03:50;;;;;;;23.15;15.73;;;;;;;;;;5027375;28;20476;-61
2022/03/16 08:06:16;;;;;;;23.95;17.73;;;;;;;;;;5028195;28;20034;-61
2022/03/16 08:08:43;;;;;;;26.73;17.40;;;;;;;;;;5027154;28;20032;-61
2022/03/16 08:11:09;;;;;;;24.27;16.90;;;;;;;;;;5028086;28;20018;-61
2022/03/16 08:13:39;;;;;;;23.73;16.17;;;;;;;;;;5028149;28;20047;-62
2022/03/16 08:16:05;;;;;;;23.70;17.98;;;;;;;;;;5027549;28;20106;-62
2022/03/16 08:18:31;;;;;;;26.80;16.52;;;;;;;;;;5022896;28;20061;-62
2022/03/16 08:20:57;;;;;;;25.30;16.85;;;;;;;;;;5027600;28;20184;-61
2022/03/16 08:23:24;;;;;;;25.05;17.75;;;;;;;;;;5027809;28;20029;-61
2022/03/16 08:25:50;;;;;;;23.92;15.05;;;;;;;;;;5026420;28;20042;-61
2022/03/16 08:28:16;;;;;;;19.45;14.13;;;;;;;;;;5028085;28;20029;-61
2022/03/16 08:30:42;;;;;;;22.42;15.13;;;;;;;;;;5026475;28;20029;-61
2022/03/16 08:33:08;;;;;;;23.70;14.60;;;;;;;;;;5028315;28;20033;-61
2022/03/16 08:35:35;;;;;;;25.65;12.82;;;;;;;;;;5028057;28;20116;-61
2022/03/16 08:38:01;;;;;;;20.65;13.10;;;;;;;;;;5027839;28;20026;-61
2022/03/16 08:40:27;;;;;;;22.83;12.60;;;;;;;;;;5028142;28;20455;-61
2022/03/16 08:42:53;;;;;;;17.30;11.45;;;;;;;;;;5026242;28;20052;-61
2022/03/16 08:45:19;;;;;;;20.38;11.70;;;;;;;;;;5025598;28;20034;-58
2022/03/16 08:47:46;;;;;;;17.98;10.63;;;;;;;;;;5028347;28;20036;-59
2022/03/16 08:50:12;;;;;;;22.70;11.60;;;;;;;;;;5026580;28;20511;-60
2022/03/16 08:52:38;;;;;;;17.48;11.07;;;;;;;;;;5023764;28;20054;-60
2022/03/16 08:55:05;;;;;;;14.95;9.63;;;;;;;;;;5023541;28;20044;-61
2022/03/16 08:57:31;;;;;;;18.20;9.45;;;;;;;;;;5027121;28;20045;-61
2022/03/16 08:59:57;;;;;;;19.90;9.88;;;;;;;;;;5018028;28;20026;-61
2022/03/16 09:02:24;;;;;;;18.38;9.55;;;;;;;;;;5026862;28;20029;-59
2022/03/16 09:04:51;;;;;;;13.30;8.52;;;;;;;;;;5026768;28;20163;-59
2022/03/16 09:07:17;;;;;;;16.17;9.07;;;;;;;;;;5021061;28;20042;-60
2022/03/16 09:09:43;;;;;;;15.13;8.35;;;;;;;;;;5016803;28;20041;-60
2022/03/16 09:12:11;;;;;;;18.67;8.73;;;;;;;;;;5020794;28;20103;-59
2022/03/16 09:14:37;;;;;;;23.67;8.40;;;;;;;;;;5020516;28;20791;-61
2022/03/16 09:17:06;;;;;;;17.60;8.75;;;;;;;;;;5021019;28;20152;-59
2022/03/16 09:19:33;;;;;;;14.27;7.20;;;;;;;;;;5019043;28;20434;-59
2022/03/16 09:22:00;;;;;;;13.73;7.57;;;;;;;;;;5019112;28;20160;-60
2022/03/16 09:24:26;;;;;;;14.95;7.35;;;;;;;;;;5018930;28;20033;-60
2022/03/16 09:26:54;;;;;;;15.68;7.93;;;;;;;;;;5021344;28;20378;-59
2022/03/16 09:29:20;;;;;;;13.43;6.85;;;;;;;;;;5020497;28;20038;-60
2022/03/16 09:31:46;;;;;;;14.68;6.57;;;;;;;;;;5020390;28;20033;-60
2022/03/16 09:34:12;;;;;;;11.48;5.70;;;;;;;;;;5022282;28;20036;-61
2022/03/16 09:36:39;;;;;;;10.13;5.55;;;;;;;;;;5025248;28;20183;-60
2022/03/16 09:39:05;;;;;;;10.07;5.20;;;;;;;;;;5022255;28;20793;-60
2022/03/16 09:41:31;;;;;;;9.88;5.72;;;;;;;;;;5023396;28;20035;-60
2022/03/16 09:43:58;;;;;;;12.02;5.05;;;;;;;;;;5021727;28;20099;-61
2022/03/16 09:46:30;;;;;;;10.82;5.60;;;;;;;;;;5025016;28;20424;-61
2022/03/16 09:48:57;;;;;;;10.02;5.18;;;;;;;;;;5022769;28;20052;-61
2022/03/16 09:51:23;;;;;;;8.43;5.38;;;;;;;;;;5022555;28;20049;-61
2022/03/16 09:53:49;;;;;;;9.40;5.05;;;;;;;;;;5022056;28;20587;-60
2022/03/16 09:56:15;;;;;;;7.97;4.40;;;;;;;;;;5022926;28;20105;-60
2022/03/16 09:58:44;;;;;;;9.93;4.75;;;;;;;;;;5027494;28;20057;-60
2022/03/16 10:01:10;;;;;;;11.25;5.30;;;;;;;;;;5030086;28;20160;-60
2022/03/16 10:03:36;;;;;;;9.90;4.95;;;;;;;;;;5029862;28;20037;-60
2022/03/16 10:06:06;;;;;;;8.20;4.60;;;;;;;;;;5023403;28;20056;-60
2022/03/16 10:08:33;;;;;;;9.52;4.63;;;;;;;;;;5016238;28;20061;-60
2022/03/16 10:13:52;;;;;;;13.30;4.45;;;;;;;;;;5010444;28;20412;-61
2022/03/16 10:16:19;;;;;;;9.05;4.03;;;;;;;;;;5027840;28;20095;-61
2022/03/16 10:18:52;;;;;;;9.38;4.25;;;;;;;;;;5029695;28;20026;-60
2022/03/16 10:21:18;;;;;;;11.52;4.25;;;;;;;;;;5029571;28;20076;-61
2022/03/16 10:23:45;;;;;;;14.77;4.75;;;;;;;;;;5029074;28;20449;-60
2022/03/16 10:26:15;;;;;;;9.15;4.13;;;;;;;;;;5030217;28;20061;-60
2022/03/16 10:28:45;;;;;;;;;;;;;;;;;;5030387;28;20049;-60
2022/03/16 10:31:12;;;;;;;10.97;4.43;;;;;;;;;;5029875;28;19905;-60
2022/03/16 10:33:44;;;;;;;7.47;4.00;;;;;;;;;;5029178;28;20030;-60
2022/03/16 10:36:11;;;;;;;9.65;3.90;;;;;;;;;;5029562;28;20108;-61
2022/03/16 10:38:43;;;;;;;7.43;3.58;;;;;;;;;;5028990;28;20052;-60
2022/03/16 10:47:00;;;;;;;7.90;3.35;;;;;;;;;;5027657;28;20052;-60
2022/03/16 10:49:30;;;;;;;7.13;3.22;;;;;;;;;;5027700;28;20034;-60
2022/03/16 10:52:02;;;;;;;8.45;3.22;;;;;;;;;;5027076;28;20137;-61
2022/03/16 10:54:29;;;;;;;10.60;3.35;;;;;;;;;;5028120;28;20065;-60
2022/03/16 10:56:55;;;;;;;7.60;3.20;;;;;;;;;;5028885;28;20560;-60
2022/03/16 10:59:26;;;;;;;7.03;2.72;;;;;;;;;;5029595;28;20026;-60
2022/03/16 11:01:52;;;;;;;8.82;2.83;;;;;;;;;;5028934;28;20031;-60
2022/03/16 11:04:24;;;;;;;6.97;2.88;;;;;;;;;;5029119;28;20064;-60
2022/03/16 11:06:51;;;;;;;6.88;2.92;;;;;;;;;;5028859;28;20605;-60
2022/03/16 11:09:17;;;;;;;6.22;3.20;;;;;;;;;;5029033;28;20112;-59
2022/03/16 11:14:29;;;;;;;5.50;2.60;;;;;;;;;;5028983;28;20095;-60
2022/03/16 11:16:56;;;;;;;7.85;3.58;;;;;;;;;;5028561;28;20042;-60
2022/03/16 11:19:24;;;;;;;5.47;2.38;;;;;;;;;;5028955;28;20440;-61
2022/03/16 11:21:52;;;;;;;7.45;2.95;;;;;;;;;;5028609;28;20108;-60
2022/03/16 11:24:20;;;;;;;5.57;2.42;;;;;;;;;;5028482;28;20120;-60
2022/03/16 11:26:55;;;;;;;6.60;2.20;;;;;;;;;;5027740;28;20061;-60
2022/03/16 11:29:47;;;;;;;6.80;2.58;;;;;;;;;;5028344;28;20030;-60
2022/03/16 11:32:15;;;;;;;6.65;2.70;;;;;;;;;;5027256;28;20490;-60
2022/03/16 11:35:02;;;;;;;7.50;2.88;;;;;;;;;;5028116;28;20053;-60
2022/03/16 11:37:33;;;;;;;4.43;2.35;;;;;;;;;;5027601;28;20030;-60
2022/03/16 11:40:05;;;;;;;5.90;2.60;;;;;;;;;;5017659;28;20021;-60
2022/03/16 11:42:32;;;;;;;4.47;2.42;;;;;;;;;;5028247;28;20032;-60
2022/03/16 11:45:19;;;;;;;5.55;2.35;;;;;;;;;;5028380;28;20479;-60
2022/03/16 11:47:46;;;;;;;6.45;2.28;;;;;;;;;;5027859;28;20159;-60
2022/03/16 11:50:14;;;;;;;5.95;2.33;;;;;;;;;;5027842;28;20025;-61
2022/03/16 11:53:17;;;;;;;5.10;2.42;;;;;;;;;;5027870;28;20060;-60
2022/03/16 11:55:48;;;;;;;3.63;1.83;;;;;;;;;;4977534;28;20824;-60
2022/03/16 11:58:18;;;;;;;5.18;2.15;;;;;;;;;;5021471;28;20077;-60
2022/03/16 12:00:45;;;;;;;3.17;1.90;;;;;;;;;;5027911;28;20037;-60
2022/03/16 12:03:20;;;;;;;3.85;1.83;;;;;;;;;;5028422;28;20033;-59
2022/03/16 12:05:59;;;;;;;4.68;2.25;;;;;;;;;;5017423;28;20388;-60
2022/03/16 12:08:32;;;;;;;6.50;1.95;;;;;;;;;;5028316;28;20035;-60
2022/03/16 12:13:45;;;;;;;4.63;2.33;;;;;;;;;;5028182;28;20117;-60
2022/03/16 12:16:13;;;;;;;4.82;2.30;;;;;;;;;;5027986;28;20037;-60
2022/03/16 12:18:46;;;;;;;4.35;2.25;;;;;;;;;;5027828;28;20092;-58
2022/03/16 12:21:14;;;;;;;5.03;1.80;;;;;;;;;;5027690;28;20030;-61
2022/03/16 12:23:45;;;;;;;4.60;1.92;;;;;;;;;;5027879;28;20029;-60
2022/03/16 12:26:12;;;;;;;5.45;2.08;;;;;;;;;;5027957;28;20119;-60
2022/03/16 12:28:58;;;;;;;4.65;1.70;;;;;;;;;;5027398;28;20360;-61
2022/03/16 12:31:24;;;;;;;3.63;1.80;;;;;;;;;;5025743;28;20029;-61
2022/03/16 12:33:55;;;;;;;3.05;1.63;;;;;;;;;;5027748;28;20032;-60
2022/03/16 12:36:25;;;;;;;5.15;2.15;;;;;;;;;;5024123;28;20041;-60
2022/03/16 12:38:54;;;;;;;4.18;2.05;;;;;;;;;;5027226;28;20034;-60
2022/03/16 12:44:07;;;;;;;5.97;2.08;;;;;;;;;;5027624;28;20148;-61
2022/03/16 12:46:33;;;;;;;4.35;1.98;;;;;;;;;;5025614;28;20111;-61
2022/03/16 12:49:04;;;;;;;6.18;2.47;;;;;;;;;;5027327;28;20136;-61
2022/03/16 12:51:34;;;;;;;5.63;2.20;;;;;;;;;;5027076;28;20046;-60
2022/03/16 12:54:00;;;;;;;5.10;2.65;;;;;;;;;;5027341;28;20025;-60
2022/03/16 12:56:25;;;;;;;3.28;1.67;;;;;;;;;;5026757;28;20120;-59
2022/03/16 12:58:52;;;;;;;4.32;2.17;;;;;;;;;;5026926;28;20036;-58
2022/03/16 13:01:22;;;;;;;4.22;1.70;;;;;;;;;;5027508;28;20029;-60
2022/03/16 13:03:49;;;;;;;3.90;1.70;;;;;;;;;;5027558;28;20487;-59
2022/03/16 13:06:20;;;;;;;4.22;1.75;;;;;;;;;;5027560;28;20399;-60
2022/03/16 13:08:46;;;;;;;;;;;;;;;;;;5030788;28;20063;-58
2022/03/16 13:11:14;;;;;;;5.50;2.30;;;;;;;;;;5030584;28;19905;-60
2022/03/16 13:13:46;;;;;;;3.08;1.80;;;;;;;;;;5030952;28;20025;-59
2022/03/16 13:16:34;;;;;;;3.60;1.98;;;;;;;;;;5031202;28;20103;-61
2022/03/16 13:19:02;;;;;;;3.72;1.50;;;;;;;;;;5031333;28;20026;-58
2022/03/16 13:21:28;;;;;;;4.03;2.10;;;;;;;;;;5030412;28;20055;-61
2022/03/16 13:24:01;;;;;;;3.13;1.70;;;;;;;;;;5020759;28;20050;-60
2022/03/16 13:26:28;;;;;;;6.35;2.30;;;;;;;;;;5022178;28;20036;-61
2022/03/16 13:28:57;;;;;;;3.80;2.00;;;;;;;;;;5026320;28;20164;-59
2022/03/16 13:31:27;;;;;;;5.07;2.03;;;;;;;;;;5022205;28;20044;-61
2022/03/16 13:33:54;;;;;;;5.32;1.98;;;;;;;;;;5031009;28;20029;-60
2022/03/16 13:36:30;;;;;;;4.55;2.00;;;;;;;;;;5030411;28;20336;-59
2022/03/16 13:38:57;;;;;;;9.35;2.03;;;;;;;;;;5031478;28;20597;-56
2022/03/16 13:41:23;;;;;;;4.28;2.15;;;;;;;;;;5030378;28;20451;-60
2022/03/16 13:44:01;;;;;;;6.35;1.83;;;;;;;;;;5031306;28;20041;-59
2022/03/16 13:46:37;;;;;;;3.53;1.90;;;;;;;;;;5030565;28;20025;-58
2022/03/16 13:49:08;;;;;;;7.82;2.10;;;;;;;;;;5030634;28;20096;-59
2022/03/16 13:51:34;;;;;;;9.77;2.30;;;;;;;;;;5030184;28;20057;-58
2022/03/16 13:54:03;;;;;;;6.85;2.13;;;;;;;;;;5030428;28;20025;-58
2022/03/16 13:56:29;;;;;;;8.68;2.20;;;;;;;;;;5030276;28;20537;-57
2022/03/16 13:58:55;;;;;;;4.60;1.70;;;;;;;;;;5030487;28;20083;-60
2022/03/16 14:01:25;;;;;;;5.63;2.15;;;;;;;;;;5030379;28;20060;-60
2022/03/16 14:04:03;;;;;;;4.90;1.88;;;;;;;;;;5030227;28;20045;-61
2022/03/16 14:06:39;;;;;;;6.20;1.70;;;;;;;;;;5030003;28;20056;-60
2022/03/16 14:09:18;;;;;;;5.00;1.98;;;;;;;;;;5030437;28;20076;-61
2022/03/16 14:11:47;;;;;;;8.02;1.83;;;;;;;;;;5029722;28;20116;-60
2022/03/16 14:14:16;;;;;;;8.60;2.10;;;;;;;;;;5030237;28;20037;-61
2022/03/16 14:16:45;;;;;;;12.13;2.00;;;;;;;;;;5030204;28;20124;-61
2022/03/16 14:19:27;;;;;;;11.93;2.47;;;;;;;;;;5029756;28;20543;-59
2022/03/16 14:21:53;;;;;;;5.68;1.83;;;;;;;;;;5030138;28;20029;-60
2022/03/16 14:24:20;;;;;;;7.20;2.10;;;;;;;;;;5030490;28;20034;-60
2022/03/16 14:26:46;;;;;;;5.82;2.17;;;;;;;;;;5029505;28;20037;-61
2022/03/16 14:29:12;;;;;;;9.82;2.75;;;;;;;;;;5029794;28;20448;-61
2022/03/16 14:31:38;;;;;;;8.23;2.40;;;;;;;;;;5029547;28;20053;-61
2022/03/16 14:34:05;;;;;;;5.88;1.92;;;;;;;;;;5029986;28;20844;-61
2022/03/16 14:36:32;;;;;;;9.43;1.88;;;;;;;;;;5029766;28;20479;-61
2022/03/16 14:38:58;;;;;;;4.38;2.08;;;;;;;;;;5029269;28;20047;-61
2022/03/16 14:41:26;;;;;;;6.95;2.03;;;;;;;;;;5029383;28;20034;-59
2022/03/16 14:43:52;;;;;;;7.28;1.85;;;;;;;;;;5029612;28;20033;-58
2022/03/16 14:46:18;;;;;;;5.78;1.70;;;;;;;;;;5028285;28;20114;-60
2022/03/16 14:48:44;;;;;;;5.82;2.00;;;;;;;;;;5029171;28;20037;-59
2022/03/16 14:51:10;;;;;;;4.13;1.95;;;;;;;;;;5029603;28;20065;-61
2022/03/16 14:53:37;;;;;;;5.93;1.95;;;;;;;;;;5029160;28;20464;-60